Time;durP1;ratioP1;P1;durP2;ratioP2;P2;SDS_P1;SDS_P2;PMS_P1;PMS_P2;Temp;Humidity;BMP_temperature;BMP_pressure;BME280_temperature;BME280_humidity;BME280_pressure;Samples;Min_cycle;Max_cycle;Signal;HPM_P1;HPM_P2
2023/10/27 00:00:53;;;;;;;2.23;1.80;;;;;;;;;;6219349;23;20751;-88
2023/10/27 00:03:19;;;;;;;2.07;1.60;;;;;;;;;;6221828;23;20370;-87
2023/10/27 00:05:45;;;;;;;7.00;2.30;;;;;;;;;;6220173;23;20382;-91
2023/10/27 00:08:12;;;;;;;3.40;1.87;;;;;;;;;;6228607;23;20430;-90
2023/10/27 00:10:38;;;;;;;6.93;2.07;;;;;;;;;;6224105;23;21125;-91
2023/10/27 00:13:04;;;;;;;5.30;2.00;;;;;;;;;;6226679;23;20419;-90
2023/10/27 00:15:30;;;;;;;4.27;2.00;;;;;;;;;;6224345;23;20355;-92
2023/10/27 00:17:58;;;;;;;4.30;2.13;;;;;;;;;;6223344;23;20386;-91
2023/10/27 00:20:25;;;;;;;2.90;1.87;;;;;;;;;;6221890;23;20410;-88
2023/10/27 00:22:51;;;;;;;6.00;2.13;;;;;;;;;;6217950;23;20391;-90
2023/10/27 00:25:17;;;;;;;1.80;1.37;;;;;;;;;;6224072;23;20438;-90
2023/10/27 00:27:43;;;;;;;1.97;1.30;;;;;;;;;;6228878;23;20433;-91
2023/10/27 00:30:09;;;;;;;3.33;1.70;;;;;;;;;;6233018;23;20371;-91
2023/10/27 00:32:38;;;;;;;6.00;1.53;;;;;;;;;;6227586;23;20391;-91
2023/10/27 00:35:04;;;;;;;2.90;1.40;;;;;;;;;;6222725;23;20389;-90
2023/10/27 00:37:34;;;;;;;3.90;1.30;;;;;;;;;;6223618;23;20414;-90
2023/10/27 00:40:00;;;;;;;3.50;1.50;;;;;;;;;;6223683;23;21098;-90
2023/10/27 00:42:26;;;;;;;2.50;1.40;;;;;;;;;;6224341;23;20387;-90
2023/10/27 00:44:52;;;;;;;4.77;1.67;;;;;;;;;;6224026;23;20477;-90
2023/10/27 00:47:18;;;;;;;6.93;1.40;;;;;;;;;;6224141;23;20376;-91
2023/10/27 00:49:44;;;;;;;2.70;1.60;;;;;;;;;;6223090;23;20473;-90
2023/10/27 00:52:13;;;;;;;4.20;1.60;;;;;;;;;;6222158;23;20575;-90
2023/10/27 00:54:39;;;;;;;3.50;1.90;;;;;;;;;;6221715;23;20378;-91
2023/10/27 00:57:06;;;;;;;4.10;2.20;;;;;;;;;;6222643;23;20447;-90
2023/10/27 00:59:32;;;;;;;1.83;1.70;;;;;;;;;;6222099;23;20375;-87
2023/10/27 01:01:58;;;;;;;2.53;1.37;;;;;;;;;;6219056;23;20378;-87
2023/10/27 01:04:25;;;;;;;1.33;1.00;;;;;;;;;;6218714;23;20415;-87
2023/10/27 01:06:51;;;;;;;3.43;1.83;;;;;;;;;;6219287;23;20383;-90
2023/10/27 01:09:17;;;;;;;1.43;1.33;;;;;;;;;;6224975;23;20478;-90
2023/10/27 01:11:43;;;;;;;6.03;1.47;;;;;;;;;;6224145;23;20472;-90
2023/10/27 01:14:10;;;;;;;2.73;1.20;;;;;;;;;;6222525;23;20505;-90
2023/10/27 01:16:36;;;;;;;2.13;1.47;;;;;;;;;;6224093;23;20395;-91
2023/10/27 01:19:02;;;;;;;2.70;1.50;;;;;;;;;;6221892;23;20402;-90
2023/10/27 01:21:27;;;;;;;2.70;1.33;;;;;;;;;;6224310;23;20367;-90
2023/10/27 01:23:53;;;;;;;5.97;1.47;;;;;;;;;;6223913;23;20402;-90
2023/10/27 01:26:19;;;;;;;1.97;1.30;;;;;;;;;;6220664;23;20402;-87
2023/10/27 01:28:45;;;;;;;1.90;1.23;;;;;;;;;;6218036;23;20422;-88
2023/10/27 01:31:11;;;;;;;2.87;0.93;;;;;;;;;;6220638;23;21152;-87
2023/10/27 01:33:38;;;;;;;3.97;1.13;;;;;;;;;;6218607;23;20371;-87
2023/10/27 01:36:04;;;;;;;2.50;1.30;;;;;;;;;;6219598;23;20446;-88
2023/10/27 01:38:30;;;;;;;2.67;1.70;;;;;;;;;;6219022;23;20352;-87
2023/10/27 01:40:56;;;;;;;1.30;1.20;;;;;;;;;;6224089;23;20470;-88
2023/10/27 01:43:22;;;;;;;2.23;1.23;;;;;;;;;;6218160;23;20394;-88
2023/10/27 01:45:48;;;;;;;2.93;1.60;;;;;;;;;;6223064;23;20375;-90
2023/10/27 01:48:14;;;;;;;1.20;1.07;;;;;;;;;;6219370;23;20835;-90
2023/10/27 01:50:41;;;;;;;1.93;1.27;;;;;;;;;;6221150;23;20478;-87
2023/10/27 01:53:07;;;;;;;2.20;1.13;;;;;;;;;;6216270;23;20383;-88
2023/10/27 01:55:33;;;;;;;1.43;0.90;;;;;;;;;;6217260;23;20846;-88
2023/10/27 01:57:59;;;;;;;3.63;1.30;;;;;;;;;;6217449;23;20378;-87
2023/10/27 02:00:25;;;;;;;1.47;1.17;;;;;;;;;;6216902;23;20426;-88
2023/10/27 02:02:51;;;;;;;1.63;0.90;;;;;;;;;;6217011;23;20398;-88
2023/10/27 02:05:17;;;;;;;3.20;1.23;;;;;;;;;;6216562;23;20503;-86
2023/10/27 02:07:43;;;;;;;3.03;1.53;;;;;;;;;;6218258;23;20386;-88
2023/10/27 02:10:09;;;;;;;1.37;1.27;;;;;;;;;;6219539;23;20375;-87
2023/10/27 02:12:35;;;;;;;2.33;1.40;;;;;;;;;;6219790;23;20379;-88
2023/10/27 02:15:01;;;;;;;2.93;1.23;;;;;;;;;;6217764;23;20713;-87
2023/10/27 02:17:27;;;;;;;2.77;1.57;;;;;;;;;;6217372;23;20383;-87
2023/10/27 02:19:55;;;;;;;7.97;1.90;;;;;;;;;;6217305;23;20383;-88
2023/10/27 02:22:21;;;;;;;2.77;1.17;;;;;;;;;;6219162;23;20383;-88
2023/10/27 02:24:47;;;;;;;1.30;1.20;;;;;;;;;;6217453;23;20419;-87
2023/10/27 02:27:13;;;;;;;2.30;1.13;;;;;;;;;;6221320;23;20406;-90
2023/10/27 02:29:39;;;;;;;1.83;1.20;;;;;;;;;;6219842;23;20379;-89
2023/10/27 02:32:05;;;;;;;5.63;1.97;;;;;;;;;;6220745;23;20866;-90
2023/10/27 02:34:31;;;;;;;5.17;1.50;;;;;;;;;;6222534;23;20388;-90
2023/10/27 02:36:57;;;;;;;3.23;1.23;;;;;;;;;;6221924;23;20386;-90
2023/10/27 02:39:23;;;;;;;2.00;1.63;;;;;;;;;;6222848;23;20379;-90
2023/10/27 02:41:49;;;;;;;2.10;1.43;;;;;;;;;;6222563;23;20391;-90
2023/10/27 02:44:15;;;;;;;3.60;1.47;;;;;;;;;;6222965;23;20425;-90
2023/10/27 02:46:41;;;;;;;1.97;1.53;;;;;;;;;;6225715;23;20434;-90
2023/10/27 02:49:07;;;;;;;2.23;1.97;;;;;;;;;;6223818;23;20455;-90
2023/10/27 02:51:33;;;;;;;1.97;1.17;;;;;;;;;;6224335;23;20375;-90
2023/10/27 02:53:59;;;;;;;0.90;0.70;;;;;;;;;;6223085;23;20462;-90
2023/10/27 02:56:25;;;;;;;3.10;1.40;;;;;;;;;;6225657;23;20375;-90
2023/10/27 02:58:51;;;;;;;3.33;1.40;;;;;;;;;;6224315;23;20466;-90
2023/10/27 03:01:18;;;;;;;1.40;1.27;;;;;;;;;;6225916;23;20398;-90
2023/10/27 03:03:44;;;;;;;3.00;1.03;;;;;;;;;;6224141;23;20431;-89
2023/10/27 03:06:12;;;;;;;5.37;1.80;;;;;;;;;;6222421;23;20395;-90
2023/10/27 03:08:39;;;;;;;1.63;1.53;;;;;;;;;;6222787;23;20378;-90
2023/10/27 03:11:11;;;;;;;2.70;1.80;;;;;;;;;;6224483;23;20458;-90
2023/10/27 03:13:37;;;;;;;3.10;1.93;;;;;;;;;;6223556;23;20386;-90
2023/10/27 03:16:04;;;;;;;1.63;1.23;;;;;;;;;;6223898;23;20375;-90
2023/10/27 03:18:29;;;;;;;2.23;1.80;;;;;;;;;;6223726;23;20463;-91
2023/10/27 03:20:56;;;;;;;3.23;1.83;;;;;;;;;;6222963;23;20383;-90
2023/10/27 03:23:23;;;;;;;2.10;1.40;;;;;;;;;;6223200;23;20403;-90
2023/10/27 03:25:49;;;;;;;4.00;1.50;;;;;;;;;;6222944;23;20374;-89
2023/10/27 03:28:15;;;;;;;2.87;1.47;;;;;;;;;;6249173;22;20842;-90
2023/10/27 03:30:42;;;;;;;5.50;1.40;;;;;;;;;;6223723;23;20385;-90
2023/10/27 03:33:08;;;;;;;3.90;1.50;;;;;;;;;;6224821;23;20375;-91
2023/10/27 03:35:34;;;;;;;1.67;1.50;;;;;;;;;;6224470;23;20390;-91
2023/10/27 03:38:00;;;;;;;1.93;1.73;;;;;;;;;;6227526;23;20363;-90
2023/10/27 03:40:26;;;;;;;1.83;1.60;;;;;;;;;;6224299;23;20850;-91
2023/10/27 03:42:52;;;;;;;1.87;1.43;;;;;;;;;;6222345;23;20436;-88
2023/10/27 03:45:18;;;;;;;2.90;1.63;;;;;;;;;;6218589;23;20411;-88
2023/10/27 03:47:44;;;;;;;2.40;1.43;;;;;;;;;;6222786;23;20857;-87
2023/10/27 03:50:10;;;;;;;2.47;1.60;;;;;;;;;;6217394;23;20399;-87
2023/10/27 03:52:36;;;;;;;2.30;1.17;;;;;;;;;;6218091;23;20390;-88
2023/10/27 03:55:02;;;;;;;2.83;1.70;;;;;;;;;;6218071;23;20381;-88
2023/10/27 03:57:28;;;;;;;4.00;1.10;;;;;;;;;;6220069;23;20397;-88
2023/10/27 03:59:54;;;;;;;1.33;1.23;;;;;;;;;;6218470;23;20379;-88
2023/10/27 04:02:20;;;;;;;1.63;1.33;;;;;;;;;;6214818;23;20374;-88
2023/10/27 04:04:46;;;;;;;3.20;1.60;;;;;;;;;;6215761;23;20415;-87
2023/10/27 04:07:12;;;;;;;2.10;1.83;;;;;;;;;;6219203;23;20471;-87
2023/10/27 04:09:38;;;;;;;1.33;1.20;;;;;;;;;;6217631;23;20399;-88
2023/10/27 04:12:06;;;;;;;2.57;1.60;;;;;;;;;;6218226;23;20410;-88
2023/10/27 04:14:32;;;;;;;1.60;1.40;;;;;;;;;;6219081;23;20768;-88
2023/10/27 04:16:59;;;;;;;5.50;1.40;;;;;;;;;;6222947;23;20391;-88
2023/10/27 04:19:27;;;;;;;1.97;1.40;;;;;;;;;;6219709;23;20446;-88
2023/10/27 04:21:53;;;;;;;4.97;1.73;;;;;;;;;;6219727;23;20413;-87
2023/10/27 04:24:19;;;;;;;2.57;1.23;;;;;;;;;;6217724;23;20422;-87
2023/10/27 04:26:45;;;;;;;1.10;1.00;;;;;;;;;;6218259;23;20375;-88
2023/10/27 04:29:11;;;;;;;10.23;1.50;;;;;;;;;;6218173;23;20394;-88
2023/10/27 04:31:38;;;;;;;1.87;1.30;;;;;;;;;;6218410;23;20433;-87
2023/10/27 04:34:04;;;;;;;2.37;1.70;;;;;;;;;;6218835;23;20449;-87
2023/10/27 04:36:30;;;;;;;1.70;1.37;;;;;;;;;;6219632;23;20401;-88
2023/10/27 04:38:56;;;;;;;0.90;0.90;;;;;;;;;;6220373;23;20395;-88
2023/10/27 04:41:22;;;;;;;3.30;1.63;;;;;;;;;;6217773;23;20363;-88
2023/10/27 04:43:48;;;;;;;3.67;2.93;;;;;;;;;;6218735;23;20418;-88
2023/10/27 04:46:14;;;;;;;2.20;0.80;;;;;;;;;;6218688;23;20386;-87
2023/10/27 04:48:40;;;;;;;4.70;1.50;;;;;;;;;;6221333;23;20363;-87
2023/10/27 04:51:06;;;;;;;4.50;1.33;;;;;;;;;;6218568;23;20363;-87
2023/10/27 04:53:32;;;;;;;1.67;1.03;;;;;;;;;;6221638;23;20819;-88
2023/10/27 04:55:58;;;;;;;1.20;1.10;;;;;;;;;;6219229;23;20461;-87
2023/10/27 04:58:24;;;;;;;1.00;0.90;;;;;;;;;;6220472;23;20371;-87
2023/10/27 05:00:50;;;;;;;0.93;0.80;;;;;;;;;;6218878;23;21077;-88
2023/10/27 05:03:17;;;;;;;1.30;0.83;;;;;;;;;;6219922;23;20443;-88
2023/10/27 05:05:43;;;;;;;2.10;1.27;;;;;;;;;;6220313;23;20375;-88
2023/10/27 05:08:09;;;;;;;1.00;0.90;;;;;;;;;;6219371;23;20442;-88
2023/10/27 05:10:35;;;;;;;0.93;0.90;;;;;;;;;;6216698;23;20399;-87
2023/10/27 05:13:03;;;;;;;0.70;0.70;;;;;;;;;;6218345;23;20914;-88
2023/10/27 05:15:29;;;;;;;1.40;1.20;;;;;;;;;;6220367;23;20383;-87
2023/10/27 05:17:55;;;;;;;3.23;1.10;;;;;;;;;;6220359;23;20406;-88
2023/10/27 05:20:21;;;;;;;2.10;0.83;;;;;;;;;;6220412;23;20768;-87
2023/10/27 05:22:47;;;;;;;2.83;1.00;;;;;;;;;;6218829;23;20383;-88
2023/10/27 05:25:14;;;;;;;0.90;0.60;;;;;;;;;;6219129;23;21044;-88
2023/10/27 05:27:40;;;;;;;1.57;0.90;;;;;;;;;;6218911;23;20403;-88
2023/10/27 05:30:06;;;;;;;2.10;1.20;;;;;;;;;;6220114;23;20379;-87
2023/10/27 05:32:33;;;;;;;1.70;0.80;;;;;;;;;;6218876;23;20383;-87
2023/10/27 05:34:59;;;;;;;1.40;1.20;;;;;;;;;;6218089;23;20380;-88
2023/10/27 05:37:26;;;;;;;1.57;1.10;;;;;;;;;;6217738;23;20461;-88
2023/10/27 05:39:52;;;;;;;2.93;1.20;;;;;;;;;;6219939;23;20399;-87
2023/10/27 05:42:18;;;;;;;0.93;0.87;;;;;;;;;;6219189;23;20699;-87
2023/10/27 05:44:44;;;;;;;1.50;1.40;;;;;;;;;;6219726;23;20430;-87
2023/10/27 05:47:10;;;;;;;2.17;1.13;;;;;;;;;;6219962;23;20379;-88
2023/10/27 05:49:36;;;;;;;2.60;1.47;;;;;;;;;;6221860;23;20375;-89
2023/10/27 05:52:03;;;;;;;1.00;0.90;;;;;;;;;;6223179;23;20749;-86
2023/10/27 05:54:32;;;;;;;2.13;1.07;;;;;;;;;;6220694;23;20363;-88
2023/10/27 05:57:00;;;;;;;1.43;1.10;;;;;;;;;;6222545;23;20378;-87
2023/10/27 05:59:26;;;;;;;0.93;0.93;;;;;;;;;;6220353;23;20394;-88
2023/10/27 06:01:54;;;;;;;2.07;1.30;;;;;;;;;;6223058;23;20729;-87
2023/10/27 06:04:20;;;;;;;1.70;1.60;;;;;;;;;;6220748;23;21163;-87
2023/10/27 06:06:46;;;;;;;1.43;1.33;;;;;;;;;;6220568;23;20395;-88
2023/10/27 06:09:12;;;;;;;1.93;1.17;;;;;;;;;;6220516;23;20379;-88
2023/10/27 06:11:38;;;;;;;1.43;1.33;;;;;;;;;;6223224;23;21078;-88
2023/10/27 06:14:06;;;;;;;4.20;1.23;;;;;;;;;;6222169;23;20395;-88
2023/10/27 06:16:32;;;;;;;1.97;1.30;;;;;;;;;;6224142;23;20363;-88
2023/10/27 06:18:59;;;;;;;1.53;0.83;;;;;;;;;;6223649;23;20383;-87
2023/10/27 06:21:25;;;;;;;6.30;1.27;;;;;;;;;;6227565;23;20565;-88
2023/10/27 06:23:51;;;;;;;2.00;1.37;;;;;;;;;;6223302;23;20430;-88
2023/10/27 06:26:17;;;;;;;1.33;1.23;;;;;;;;;;6220499;23;20435;-88
2023/10/27 06:28:43;;;;;;;1.30;1.20;;;;;;;;;;6223640;23;20414;-87
2023/10/27 06:31:09;;;;;;;1.00;1.00;;;;;;;;;;6247686;22;20373;-87
2023/10/27 06:33:36;;;;;;;1.30;1.20;;;;;;;;;;6220538;23;20406;-86
2023/10/27 06:36:02;;;;;;;1.70;1.33;;;;;;;;;;6220881;23;20383;-86
2023/10/27 06:38:29;;;;;;;2.87;1.03;;;;;;;;;;6220339;23;20383;-87
2023/10/27 06:40:55;;;;;;;1.20;1.07;;;;;;;;;;6220604;23;20413;-87
2023/10/27 06:43:21;;;;;;;1.40;1.17;;;;;;;;;;6220218;23;20391;-86
2023/10/27 06:45:47;;;;;;;1.70;0.80;;;;;;;;;;6220916;23;20402;-86
2023/10/27 06:48:13;;;;;;;1.97;1.30;;;;;;;;;;6220558;23;20406;-87
2023/10/27 06:50:40;;;;;;;1.50;1.40;;;;;;;;;;6221335;23;20423;-87
2023/10/27 06:53:06;;;;;;;2.53;1.17;;;;;;;;;;6220637;23;20466;-86
2023/10/27 06:55:32;;;;;;;1.90;1.17;;;;;;;;;;6222305;23;20830;-87
2023/10/27 06:57:59;;;;;;;3.30;1.10;;;;;;;;;;6221644;23;20754;-86
2023/10/27 07:00:25;;;;;;;1.03;0.93;;;;;;;;;;6223593;23;20381;-85
2023/10/27 07:02:51;;;;;;;2.03;1.20;;;;;;;;;;6223912;23;20359;-85
2023/10/27 07:05:17;;;;;;;2.50;1.30;;;;;;;;;;6220416;23;20486;-85
2023/10/27 07:07:47;;;;;;;2.00;1.33;;;;;;;;;;6220677;23;20387;-85
2023/10/27 07:10:13;;;;;;;2.23;1.30;;;;;;;;;;6219772;23;20379;-84
2023/10/27 07:12:39;;;;;;;2.73;1.50;;;;;;;;;;6218932;23;20385;-87
2023/10/27 07:15:05;;;;;;;2.03;1.30;;;;;;;;;;6218871;23;20372;-84
2023/10/27 07:17:31;;;;;;;2.27;1.40;;;;;;;;;;6219732;23;20474;-84
2023/10/27 07:19:57;;;;;;;1.40;1.10;;;;;;;;;;6219556;23;20380;-85
2023/10/27 07:22:23;;;;;;;2.00;1.10;;;;;;;;;;6220050;23;20855;-85
2023/10/27 07:24:49;;;;;;;1.07;0.77;;;;;;;;;;6218487;23;20473;-85
2023/10/27 07:27:15;;;;;;;1.07;0.80;;;;;;;;;;6221984;23;20391;-85
2023/10/27 07:29:41;;;;;;;2.50;1.20;;;;;;;;;;6220483;23;20373;-85
2023/10/27 07:32:07;;;;;;;1.07;0.90;;;;;;;;;;6221954;23;20843;-86
2023/10/27 07:34:33;;;;;;;1.53;0.80;;;;;;;;;;6220715;23;20379;-85
2023/10/27 07:36:59;;;;;;;1.10;1.00;;;;;;;;;;6220744;23;20383;-85
2023/10/27 07:39:25;;;;;;;1.77;1.20;;;;;;;;;;6221725;23;20381;-85
2023/10/27 07:41:51;;;;;;;2.03;1.17;;;;;;;;;;6222505;23;20375;-85
2023/10/27 07:44:17;;;;;;;0.80;0.80;;;;;;;;;;6222557;23;20426;-86
2023/10/27 07:46:43;;;;;;;0.60;0.60;;;;;;;;;;6220028;23;20398;-85
2023/10/27 07:49:09;;;;;;;0.80;0.70;;;;;;;;;;6219464;23;20394;-85
2023/10/27 07:51:35;;;;;;;2.30;0.90;;;;;;;;;;6219007;23;20524;-85
2023/10/27 07:54:01;;;;;;;0.97;0.80;;;;;;;;;;6221233;23;20496;-85
2023/10/27 07:56:29;;;;;;;1.00;0.87;;;;;;;;;;6218313;23;20364;-85
2023/10/27 07:58:55;;;;;;;0.90;0.77;;;;;;;;;;6221479;23;20425;-84
2023/10/27 08:01:21;;;;;;;0.93;0.80;;;;;;;;;;6218383;23;20383;-85
2023/10/27 08:03:47;;;;;;;0.77;0.50;;;;;;;;;;6218555;23;20411;-85
2023/10/27 08:06:13;;;;;;;0.60;0.60;;;;;;;;;;6219221;23;20456;-85
2023/10/27 08:08:40;;;;;;;0.90;0.60;;;;;;;;;;6218694;23;20378;-85
2023/10/27 08:11:06;;;;;;;0.60;0.60;;;;;;;;;;6218742;23;20787;-85
2023/10/27 08:13:32;;;;;;;0.80;0.70;;;;;;;;;;6216848;23;20942;-85
2023/10/27 08:15:59;;;;;;;0.70;0.50;;;;;;;;;;6218428;23;20383;-86
2023/10/27 08:18:25;;;;;;;1.10;0.90;;;;;;;;;;6218191;23;20694;-86
2023/10/27 08:20:52;;;;;;;0.60;0.50;;;;;;;;;;6218067;23;20375;-86
2023/10/27 08:23:18;;;;;;;1.70;1.30;;;;;;;;;;6221196;23;20715;-86
2023/10/27 08:25:51;;;;;;;0.70;0.60;;;;;;;;;;6217384;23;20941;-85
2023/10/27 08:28:20;;;;;;;1.73;0.60;;;;;;;;;;6217927;23;20418;-82
2023/10/27 08:30:46;;;;;;;0.80;0.60;;;;;;;;;;6217260;23;20410;-82
2023/10/27 08:33:15;;;;;;;0.87;0.60;;;;;;;;;;6221774;23;20453;-82
2023/10/27 08:35:41;;;;;;;1.53;0.93;;;;;;;;;;6219420;23;20388;-85
2023/10/27 08:38:08;;;;;;;0.67;0.50;;;;;;;;;;6218791;23;20415;-86
2023/10/27 08:40:34;;;;;;;0.60;0.60;;;;;;;;;;6219150;23;20367;-87
2023/10/27 08:43:00;;;;;;;1.07;0.50;;;;;;;;;;6217688;23;20371;-86
2023/10/27 08:45:27;;;;;;;0.70;0.60;;;;;;;;;;6219247;23;20411;-85
2023/10/27 08:47:53;;;;;;;3.00;0.60;;;;;;;;;;6219058;23;20791;-86
2023/10/27 08:50:20;;;;;;;0.90;0.70;;;;;;;;;;6217470;23;20976;-86
2023/10/27 08:52:48;;;;;;;0.70;0.60;;;;;;;;;;6221604;23;20383;-88
2023/10/27 08:55:15;;;;;;;1.10;0.90;;;;;;;;;;6220805;23;20395;-88
2023/10/27 08:57:41;;;;;;;0.83;0.83;;;;;;;;;;6224912;23;20387;-89
2023/10/27 09:00:07;;;;;;;1.30;0.93;;;;;;;;;;6223594;23;20417;-89
2023/10/27 09:02:34;;;;;;;1.30;0.90;;;;;;;;;;6227923;23;20417;-89
2023/10/27 09:05:07;;;;;;;8.63;6.77;;;;;;;;;;6223662;23;20530;-89
2023/10/27 09:07:33;;;;;;;3.93;1.97;;;;;;;;;;6222410;23;20383;-88
2023/10/27 09:09:59;;;;;;;1.10;1.10;;;;;;;;;;6221883;23;20414;-89
2023/10/27 09:12:30;;;;;;;0.70;0.60;;;;;;;;;;6222036;23;20867;-89
2023/10/27 09:15:00;;;;;;;1.17;1.07;;;;;;;;;;6227369;23;20374;-89
2023/10/27 09:17:26;;;;;;;0.80;0.80;;;;;;;;;;6223204;23;20383;-89
2023/10/27 09:20:04;;;;;;;0.80;0.60;;;;;;;;;;6221820;23;20375;-89
2023/10/27 09:22:30;;;;;;;1.00;0.93;;;;;;;;;;6249024;22;20363;-88
2023/10/27 09:25:13;;;;;;;0.60;0.50;;;;;;;;;;6220772;23;20490;-89
2023/10/27 09:27:43;;;;;;;0.60;0.60;;;;;;;;;;6223592;23;20427;-89
2023/10/27 09:30:11;;;;;;;0.90;0.60;;;;;;;;;;6221347;23;20758;-89
2023/10/27 09:32:37;;;;;;;0.60;0.50;;;;;;;;;;6220924;23;20847;-89
2023/10/27 09:35:09;;;;;;;1.23;0.70;;;;;;;;;;6221899;23;20393;-88
2023/10/27 09:37:38;;;;;;;0.70;0.60;;;;;;;;;;6221179;23;20750;-88
2023/10/27 09:40:08;;;;;;;0.90;0.63;;;;;;;;;;6222059;23;20383;-88
2023/10/27 09:42:35;;;;;;;1.50;0.90;;;;;;;;;;6222752;23;20538;-88
2023/10/27 09:45:08;;;;;;;1.10;1.00;;;;;;;;;;6221376;23;20411;-87
2023/10/27 09:47:35;;;;;;;1.27;0.70;;;;;;;;;;6220381;23;20696;-88
2023/10/27 09:50:08;;;;;;;1.27;0.90;;;;;;;;;;6221172;23;20383;-88
2023/10/27 09:52:34;;;;;;;0.80;0.70;;;;;;;;;;6225530;23;20382;-88
2023/10/27 09:55:01;;;;;;;3.80;0.80;;;;;;;;;;6223337;23;20492;-89
2023/10/27 09:57:27;;;;;;;2.50;1.97;;;;;;;;;;6223563;23;20397;-87
2023/10/27 09:59:54;;;;;;;2.60;1.37;;;;;;;;;;6221915;23;20383;-87
2023/10/27 10:02:22;;;;;;;2.20;0.80;;;;;;;;;;6225690;23;20418;-88
2023/10/27 10:04:51;;;;;;;1.00;0.90;;;;;;;;;;6224144;23;20825;-88
2023/10/27 10:07:33;;;;;;;2.50;1.03;;;;;;;;;;6251504;22;20375;-89
2023/10/27 10:10:19;;;;;;;2.10;0.80;;;;;;;;;;6248514;23;20466;-89
2023/10/27 10:13:04;;;;;;;2.07;0.70;;;;;;;;;;6250426;22;20390;-90
2023/10/27 10:15:40;;;;;;;1.03;0.90;;;;;;;;;;6249797;22;20377;-90
2023/10/27 10:18:06;;;;;;;0.80;0.80;;;;;;;;;;6224445;23;20363;-93
2023/10/27 10:20:41;;;;;;;0.77;0.70;;;;;;;;;;6237424;23;20405;-89
2023/10/27 10:23:08;;;;;;;1.60;1.00;;;;;;;;;;6227444;23;20366;-89
2023/10/27 10:25:35;;;;;;;2.70;1.70;;;;;;;;;;6221633;23;20505;-90
2023/10/27 10:28:10;;;;;;;2.10;0.90;;;;;;;;;;6222674;23;20463;-89
2023/10/27 10:30:40;;;;;;;1.10;0.70;;;;;;;;;;6224426;23;20363;-92
2023/10/27 10:33:24;;;;;;;2.70;0.83;;;;;;;;;;6222634;23;20383;-91
2023/10/27 10:35:51;;;;;;;1.30;0.70;;;;;;;;;;6222380;23;20392;-90
2023/10/27 10:38:23;;;;;;;0.90;0.80;;;;;;;;;;6222540;23;20375;-90
2023/10/27 10:40:49;;;;;;;2.33;1.10;;;;;;;;;;6246551;22;20991;-90
2023/10/27 10:43:24;;;;;;;2.93;0.80;;;;;;;;;;6228518;23;20383;-90
2023/10/27 10:45:54;;;;;;;2.37;1.47;;;;;;;;;;6246927;23;20462;-90
2023/10/27 10:48:20;;;;;;;3.03;0.90;;;;;;;;;;6221633;23;20363;-89
2023/10/27 10:50:47;;;;;;;1.43;0.70;;;;;;;;;;6223826;23;20406;-87
2023/10/27 10:53:16;;;;;;;2.50;0.77;;;;;;;;;;6224954;23;20445;-89
2023/10/27 10:55:46;;;;;;;1.87;1.10;;;;;;;;;;6223374;23;20406;-87
2023/10/27 10:58:21;;;;;;;2.93;1.00;;;;;;;;;;6221968;23;20390;-89
2023/10/27 11:00:50;;;;;;;1.47;0.80;;;;;;;;;;6220736;23;20366;-89
2023/10/27 11:03:16;;;;;;;1.40;1.00;;;;;;;;;;6222479;23;20363;-88
2023/10/27 11:05:42;;;;;;;0.97;0.70;;;;;;;;;;6222802;23;20453;-89
2023/10/27 11:08:08;;;;;;;2.43;1.00;;;;;;;;;;6223124;23;20379;-88
2023/10/27 11:10:35;;;;;;;1.37;0.93;;;;;;;;;;6222877;23;20405;-88
2023/10/27 11:13:03;;;;;;;4.50;0.97;;;;;;;;;;6224832;23;20379;-89
2023/10/27 11:15:42;;;;;;;2.20;0.80;;;;;;;;;;6222276;23;20393;-88
2023/10/27 11:18:08;;;;;;;2.40;0.90;;;;;;;;;;6224653;23;20370;-88
2023/10/27 11:20:35;;;;;;;4.27;0.93;;;;;;;;;;6221918;23;20402;-88
2023/10/27 11:23:10;;;;;;;2.27;0.90;;;;;;;;;;6223557;23;20461;-87
2023/10/27 11:25:36;;;;;;;2.27;0.70;;;;;;;;;;6222629;23;20418;-88
2023/10/27 11:28:18;;;;;;;4.13;1.50;;;;;;;;;;6224251;23;20486;-88
2023/10/27 11:30:44;;;;;;;3.60;0.97;;;;;;;;;;6222807;23;20458;-88
2023/10/27 11:33:10;;;;;;;1.50;1.10;;;;;;;;;;6223423;23;20382;-88
2023/10/27 11:35:45;;;;;;;1.93;0.60;;;;;;;;;;6222290;23;20379;-87
2023/10/27 11:38:12;;;;;;;2.50;0.77;;;;;;;;;;6222002;23;20382;-88
2023/10/27 11:40:38;;;;;;;1.60;1.30;;;;;;;;;;6222088;23;20355;-88
2023/10/27 11:43:04;;;;;;;1.43;1.00;;;;;;;;;;6223645;23;20391;-88
2023/10/27 11:45:30;;;;;;;1.90;0.90;;;;;;;;;;6221812;23;20399;-89
2023/10/27 11:47:56;;;;;;;2.20;0.93;;;;;;;;;;6224369;23;20402;-88
2023/10/27 11:50:22;;;;;;;1.90;0.80;;;;;;;;;;6219237;23;20426;-89
2023/10/27 11:52:48;;;;;;;5.73;1.03;;;;;;;;;;6221785;23;20367;-88
2023/10/27 11:55:14;;;;;;;2.50;0.97;;;;;;;;;;6220260;23;20375;-88
2023/10/27 11:57:40;;;;;;;1.70;0.77;;;;;;;;;;6220152;23;20394;-87
2023/10/27 12:00:08;;;;;;;2.23;1.00;;;;;;;;;;6220605;23;20506;-90
2023/10/27 12:02:34;;;;;;;1.90;1.00;;;;;;;;;;6220877;23;20385;-89
2023/10/27 12:05:00;;;;;;;1.80;1.17;;;;;;;;;;6221070;23;20423;-88
2023/10/27 12:07:26;;;;;;;1.77;1.00;;;;;;;;;;6221329;23;20390;-88
2023/10/27 12:09:52;;;;;;;1.67;0.77;;;;;;;;;;6220042;23;20379;-87
2023/10/27 12:12:21;;;;;;;2.13;0.80;;;;;;;;;;6220924;23;20417;-88
2023/10/27 12:14:47;;;;;;;1.60;0.90;;;;;;;;;;6220002;23;20391;-87
2023/10/27 12:17:13;;;;;;;1.80;1.03;;;;;;;;;;6220553;23;20438;-88
2023/10/27 12:19:40;;;;;;;1.50;0.80;;;;;;;;;;6220554;23;20753;-87
2023/10/27 12:22:06;;;;;;;2.27;0.97;;;;;;;;;;6224744;23;20394;-88
2023/10/27 12:24:34;;;;;;;1.87;0.83;;;;;;;;;;6220964;23;20419;-88
2023/10/27 12:27:01;;;;;;;1.87;0.83;;;;;;;;;;6221628;23;20457;-87
2023/10/27 12:29:27;;;;;;;1.30;0.83;;;;;;;;;;6169029;23;20385;-88
2023/10/27 12:31:55;;;;;;;1.57;0.70;;;;;;;;;;6171498;23;20381;-87
2023/10/27 12:34:21;;;;;;;1.60;0.80;;;;;;;;;;6170395;23;20379;-87
2023/10/27 12:36:47;;;;;;;1.10;0.70;;;;;;;;;;6167154;23;20387;-87
2023/10/27 12:39:15;;;;;;;1.43;0.70;;;;;;;;;;6168180;23;20397;-85
2023/10/27 12:41:41;;;;;;;2.93;2.70;;;;;;;;;;6218893;23;20376;-89
2023/10/27 12:44:07;;;;;;;1.53;0.90;;;;;;;;;;6168064;23;20529;-88
2023/10/27 12:46:33;;;;;;;1.50;1.07;;;;;;;;;;6171850;23;20386;-90
2023/10/27 12:49:01;;;;;;;1.60;0.90;;;;;;;;;;6169357;23;20454;-88
2023/10/27 12:51:29;;;;;;;1.73;0.93;;;;;;;;;;6173868;23;20410;-88
2023/10/27 12:53:55;;;;;;;2.90;1.00;;;;;;;;;;6223764;23;20376;-87
2023/10/27 12:56:22;;;;;;;1.30;0.80;;;;;;;;;;6168076;23;20881;-87
2023/10/27 12:58:48;;;;;;;1.30;0.73;;;;;;;;;;6168527;23;20434;-88
2023/10/27 13:01:14;;;;;;;2.20;0.70;;;;;;;;;;6171083;23;20414;-88
2023/10/27 13:03:40;;;;;;;2.53;0.80;;;;;;;;;;6169829;23;20450;-88
2023/10/27 13:06:06;;;;;;;1.30;0.93;;;;;;;;;;6172347;23;20379;-88
2023/10/27 13:08:33;;;;;;;1.00;0.60;;;;;;;;;;6168622;23;20441;-87
2023/10/27 13:11:05;;;;;;;1.77;0.63;;;;;;;;;;6169778;23;20376;-88
2023/10/27 13:13:34;;;;;;;3.37;0.87;;;;;;;;;;6168845;23;20845;-88
2023/10/27 13:16:01;;;;;;;1.10;0.70;;;;;;;;;;6170508;23;20383;-88
2023/10/27 13:18:28;;;;;;;1.70;0.77;;;;;;;;;;6169405;23;20437;-88
2023/10/27 13:20:55;;;;;;;3.17;1.17;;;;;;;;;;6171985;23;20378;-88
2023/10/27 13:23:21;;;;;;;1.70;0.67;;;;;;;;;;6170099;23;20379;-88
2023/10/27 13:25:47;;;;;;;0.90;0.60;;;;;;;;;;6173845;23;20443;-88
2023/10/27 13:28:14;;;;;;;2.10;1.13;;;;;;;;;;6181342;23;20525;-83
2023/10/27 13:30:45;;;;;;;1.13;0.70;;;;;;;;;;6217669;23;20367;-87
2023/10/27 13:33:11;;;;;;;3.20;0.80;;;;;;;;;;6215006;23;20762;-86
2023/10/27 13:35:40;;;;;;;1.73;0.60;;;;;;;;;;6216454;23;20374;-84
2023/10/27 13:38:06;;;;;;;1.20;0.60;;;;;;;;;;6217294;23;20410;-86
2023/10/27 13:40:39;;;;;;;3.43;0.67;;;;;;;;;;6218851;23;20382;-85
2023/10/27 13:43:05;;;;;;;2.23;0.87;;;;;;;;;;6221580;23;20379;-86
2023/10/27 13:45:35;;;;;;;1.67;1.37;;;;;;;;;;6218294;23;20450;-86
2023/10/27 13:48:27;;;;;;;2.37;0.97;;;;;;;;;;6238437;23;20371;-86
2023/10/27 13:50:55;;;;;;;0.93;0.80;;;;;;;;;;6219816;23;20411;-87
2023/10/27 13:53:21;;;;;;;1.00;0.80;;;;;;;;;;6218789;23;20446;-86
2023/10/27 13:55:47;;;;;;;2.30;0.80;;;;;;;;;;6221478;23;20386;-87
2023/10/27 13:58:13;;;;;;;1.10;0.60;;;;;;;;;;6218917;23;20478;-87
2023/10/27 14:00:40;;;;;;;0.73;0.60;;;;;;;;;;6219910;23;20387;-87
2023/10/27 14:03:09;;;;;;;1.10;0.60;;;;;;;;;;6218492;23;20419;-87
2023/10/27 14:05:35;;;;;;;1.47;1.10;;;;;;;;;;6221745;23;20431;-87
2023/10/27 14:08:01;;;;;;;1.07;0.77;;;;;;;;;;6218575;23;20363;-87
2023/10/27 14:10:27;;;;;;;1.10;0.87;;;;;;;;;;6220339;23;20371;-87
2023/10/27 14:12:53;;;;;;;2.57;1.13;;;;;;;;;;6218322;23;20458;-86
2023/10/27 14:15:19;;;;;;;3.53;1.10;;;;;;;;;;6222092;23;20908;-86
2023/10/27 14:17:46;;;;;;;3.77;1.37;;;;;;;;;;6219369;23;20371;-86
2023/10/27 14:20:12;;;;;;;1.67;1.10;;;;;;;;;;6221049;23;20378;-87
2023/10/27 14:22:38;;;;;;;1.97;1.67;;;;;;;;;;6219297;23;20395;-87
2023/10/27 14:25:05;;;;;;;1.57;0.83;;;;;;;;;;6220264;23;20422;-87
2023/10/27 14:27:31;;;;;;;1.63;1.03;;;;;;;;;;6228100;23;20450;-90
2023/10/27 14:29:57;;;;;;;1.17;1.07;;;;;;;;;;6222660;23;20418;-88
2023/10/27 14:32:23;;;;;;;4.80;3.80;;;;;;;;;;6219698;23;20421;-88
2023/10/27 14:34:49;;;;;;;4.63;2.60;;;;;;;;;;6222006;23;20367;-88
2023/10/27 14:37:15;;;;;;;2.47;1.87;;;;;;;;;;6218816;23;20413;-89
2023/10/27 14:39:41;;;;;;;1.50;1.20;;;;;;;;;;6220002;23;20457;-89
2023/10/27 14:42:10;;;;;;;2.60;1.57;;;;;;;;;;6246705;22;21042;-89